sensor_id;sensor_type;location;lat;lon;timestamp;P1;durP1;ratioP1;P2;durP2;ratioP2
25932;SDS011;13731;51.166;4.474;2023-05-07T00:00:28;129.38;;;122.32;;
25932;SDS011;13731;51.166;4.474;2023-05-07T00:02:54;125.60;;;118.50;;
25932;SDS011;13731;51.166;4.474;2023-05-07T00:05:19;134.95;;;127.75;;
25932;SDS011;13731;51.166;4.474;2023-05-07T00:07:46;128.98;;;121.55;;
25932;SDS011;13731;51.166;4.474;2023-05-07T00:10:12;133.27;;;125.88;;
25932;SDS011;13731;51.166;4.474;2023-05-07T00:12:38;131.02;;;124.13;;
25932;SDS011;13731;51.166;4.474;2023-05-07T00:15:05;136.70;;;129.10;;
25932;SDS011;13731;51.166;4.474;2023-05-07T00:17:32;133.32;;;126.32;;
25932;SDS011;13731;51.166;4.474;2023-05-07T00:19:58;136.90;;;129.60;;
25932;SDS011;13731;51.166;4.474;2023-05-07T00:22:24;140.00;;;132.50;;
25932;SDS011;13731;51.166;4.474;2023-05-07T00:24:50;138.00;;;130.27;;
25932;SDS011;13731;51.166;4.474;2023-05-07T00:27:16;129.32;;;122.35;;
25932;SDS011;13731;51.166;4.474;2023-05-07T00:29:42;137.40;;;129.82;;
25932;SDS011;13731;51.166;4.474;2023-05-07T00:32:08;138.75;;;131.32;;
25932;SDS011;13731;51.166;4.474;2023-05-07T00:34:34;138.02;;;130.80;;
25932;SDS011;13731;51.166;4.474;2023-05-07T00:37:00;137.32;;;129.90;;
25932;SDS011;13731;51.166;4.474;2023-05-07T00:39:26;128.98;;;122.10;;
25932;SDS011;13731;51.166;4.474;2023-05-07T00:41:52;138.90;;;131.60;;
25932;SDS011;13731;51.166;4.474;2023-05-07T00:44:18;139.70;;;132.13;;
25932;SDS011;13731;51.166;4.474;2023-05-07T00:46:44;138.73;;;131.02;;
25932;SDS011;13731;51.166;4.474;2023-05-07T00:49:10;135.45;;;127.82;;
25932;SDS011;13731;51.166;4.474;2023-05-07T00:51:36;139.52;;;131.65;;
25932;SDS011;13731;51.166;4.474;2023-05-07T00:54:02;137.32;;;129.65;;
25932;SDS011;13731;51.166;4.474;2023-05-07T00:56:28;141.43;;;133.38;;
25932;SDS011;13731;51.166;4.474;2023-05-07T00:58:54;135.40;;;127.80;;
25932;SDS011;13731;51.166;4.474;2023-05-07T01:01:20;135.63;;;128.10;;
25932;SDS011;13731;51.166;4.474;2023-05-07T01:03:46;135.57;;;128.00;;
25932;SDS011;13731;51.166;4.474;2023-05-07T01:06:12;137.18;;;129.43;;
25932;SDS011;13731;51.166;4.474;2023-05-07T01:08:42;127.72;;;120.68;;
25932;SDS011;13731;51.166;4.474;2023-05-07T01:11:08;124.00;;;116.53;;
25932;SDS011;13731;51.166;4.474;2023-05-07T01:13:35;115.53;;;108.88;;
25932;SDS011;13731;51.166;4.474;2023-05-07T01:16:03;114.70;;;108.03;;
25932;SDS011;13731;51.166;4.474;2023-05-07T01:18:29;113.35;;;106.80;;
25932;SDS011;13731;51.166;4.474;2023-05-07T01:20:58;117.28;;;110.32;;
25932;SDS011;13731;51.166;4.474;2023-05-07T01:23:26;128.52;;;121.10;;
25932;SDS011;13731;51.166;4.474;2023-05-07T01:25:53;117.03;;;110.53;;
25932;SDS011;13731;51.166;4.474;2023-05-07T01:28:22;133.10;;;125.60;;
25932;SDS011;13731;51.166;4.474;2023-05-07T01:30:56;130.07;;;122.90;;
25932;SDS011;13731;51.166;4.474;2023-05-07T01:33:31;133.07;;;125.78;;
25932;SDS011;13731;51.166;4.474;2023-05-07T01:35:59;133.60;;;126.03;;
25932;SDS011;13731;51.166;4.474;2023-05-07T01:38:27;130.65;;;123.40;;
25932;SDS011;13731;51.166;4.474;2023-05-07T01:40:54;129.57;;;122.13;;
25932;SDS011;13731;51.166;4.474;2023-05-07T01:43:21;126.13;;;119.32;;
25932;SDS011;13731;51.166;4.474;2023-05-07T01:45:46;128.25;;;121.07;;
25932;SDS011;13731;51.166;4.474;2023-05-07T01:48:14;126.80;;;119.65;;
25932;SDS011;13731;51.166;4.474;2023-05-07T01:50:44;124.40;;;117.70;;
25932;SDS011;13731;51.166;4.474;2023-05-07T01:53:10;126.07;;;118.93;;
25932;SDS011;13731;51.166;4.474;2023-05-07T01:55:36;127.32;;;120.47;;
25932;SDS011;13731;51.166;4.474;2023-05-07T01:58:03;125.03;;;118.13;;
25932;SDS011;13731;51.166;4.474;2023-05-07T02:00:29;117.38;;;110.82;;
25932;SDS011;13731;51.166;4.474;2023-05-07T02:02:55;124.60;;;117.57;;
25932;SDS011;13731;51.166;4.474;2023-05-07T02:05:33;119.57;;;112.75;;
25932;SDS011;13731;51.166;4.474;2023-05-07T02:08:09;120.55;;;113.53;;
25932;SDS011;13731;51.166;4.474;2023-05-07T02:10:36;113.32;;;106.82;;
25932;SDS011;13731;51.166;4.474;2023-05-07T02:13:04;110.72;;;104.82;;
25932;SDS011;13731;51.166;4.474;2023-05-07T02:15:30;110.13;;;103.97;;
25932;SDS011;13731;51.166;4.474;2023-05-07T02:18:06;107.93;;;101.45;;
25932;SDS011;13731;51.166;4.474;2023-05-07T02:20:34;109.90;;;103.72;;
25932;SDS011;13731;51.166;4.474;2023-05-07T02:23:01;117.68;;;111.00;;
25932;SDS011;13731;51.166;4.474;2023-05-07T02:25:28;112.38;;;106.15;;
25932;SDS011;13731;51.166;4.474;2023-05-07T02:27:55;113.25;;;107.03;;
25932;SDS011;13731;51.166;4.474;2023-05-07T02:30:28;112.65;;;106.40;;
25932;SDS011;13731;51.166;4.474;2023-05-07T02:32:56;121.13;;;113.65;;
25932;SDS011;13731;51.166;4.474;2023-05-07T02:35:23;118.88;;;112.15;;
25932;SDS011;13731;51.166;4.474;2023-05-07T02:37:50;118.40;;;111.13;;
25932;SDS011;13731;51.166;4.474;2023-05-07T02:40:15;110.93;;;104.70;;
25932;SDS011;13731;51.166;4.474;2023-05-07T02:42:41;116.90;;;110.22;;
25932;SDS011;13731;51.166;4.474;2023-05-07T02:45:07;113.03;;;106.50;;
25932;SDS011;13731;51.166;4.474;2023-05-07T02:47:34;107.97;;;101.82;;
25932;SDS011;13731;51.166;4.474;2023-05-07T02:50:01;111.88;;;105.47;;
25932;SDS011;13731;51.166;4.474;2023-05-07T02:52:28;109.63;;;103.53;;
25932;SDS011;13731;51.166;4.474;2023-05-07T02:54:54;113.65;;;107.47;;
25932;SDS011;13731;51.166;4.474;2023-05-07T02:57:20;110.30;;;104.10;;
25932;SDS011;13731;51.166;4.474;2023-05-07T02:59:46;107.32;;;101.38;;
25932;SDS011;13731;51.166;4.474;2023-05-07T03:02:13;110.70;;;104.47;;
25932;SDS011;13731;51.166;4.474;2023-05-07T03:04:39;112.68;;;106.15;;
25932;SDS011;13731;51.166;4.474;2023-05-07T03:07:06;114.15;;;107.63;;
25932;SDS011;13731;51.166;4.474;2023-05-07T03:09:32;105.80;;;99.88;;
25932;SDS011;13731;51.166;4.474;2023-05-07T03:11:57;110.65;;;104.57;;
25932;SDS011;13731;51.166;4.474;2023-05-07T03:14:23;110.10;;;104.15;;
25932;SDS011;13731;51.166;4.474;2023-05-07T03:16:49;115.68;;;109.15;;
25932;SDS011;13731;51.166;4.474;2023-05-07T03:19:15;113.20;;;107.05;;
25932;SDS011;13731;51.166;4.474;2023-05-07T03:21:41;115.25;;;108.72;;
25932;SDS011;13731;51.166;4.474;2023-05-07T03:24:07;116.72;;;110.10;;
25932;SDS011;13731;51.166;4.474;2023-05-07T03:26:33;111.28;;;105.10;;
25932;SDS011;13731;51.166;4.474;2023-05-07T03:28:59;114.40;;;107.88;;
25932;SDS011;13731;51.166;4.474;2023-05-07T03:31:25;102.43;;;96.43;;
25932;SDS011;13731;51.166;4.474;2023-05-07T03:33:55;103.78;;;97.15;;
25932;SDS011;13731;51.166;4.474;2023-05-07T03:36:23;108.85;;;102.80;;
25932;SDS011;13731;51.166;4.474;2023-05-07T03:38:50;108.88;;;102.65;;
25932;SDS011;13731;51.166;4.474;2023-05-07T03:41:19;114.57;;;108.05;;
25932;SDS011;13731;51.166;4.474;2023-05-07T03:43:45;110.35;;;103.72;;
25932;SDS011;13731;51.166;4.474;2023-05-07T03:46:12;110.60;;;104.38;;
25932;SDS011;13731;51.166;4.474;2023-05-07T03:48:38;119.03;;;112.38;;
25932;SDS011;13731;51.166;4.474;2023-05-07T03:51:05;124.47;;;117.55;;
25932;SDS011;13731;51.166;4.474;2023-05-07T03:53:32;124.47;;;117.43;;
25932;SDS011;13731;51.166;4.474;2023-05-07T03:55:58;128.98;;;121.57;;
25932;SDS011;13731;51.166;4.474;2023-05-07T03:58:24;128.18;;;121.00;;
25932;SDS011;13731;51.166;4.474;2023-05-07T04:00:52;125.22;;;118.22;;
25932;SDS011;13731;51.166;4.474;2023-05-07T04:03:25;125.20;;;118.20;;
25932;SDS011;13731;51.166;4.474;2023-05-07T04:05:51;116.97;;;110.55;;
25932;SDS011;13731;51.166;4.474;2023-05-07T04:08:17;118.38;;;112.00;;
25932;SDS011;13731;51.166;4.474;2023-05-07T04:10:46;111.40;;;105.05;;
25932;SDS011;13731;51.166;4.474;2023-05-07T04:13:12;104.85;;;98.85;;
25932;SDS011;13731;51.166;4.474;2023-05-07T04:15:38;106.55;;;100.78;;
25932;SDS011;13731;51.166;4.474;2023-05-07T04:20:35;105.70;;;99.70;;
25932;SDS011;13731;51.166;4.474;2023-05-07T04:23:03;107.67;;;101.30;;
25932;SDS011;13731;51.166;4.474;2023-05-07T04:25:30;105.55;;;99.40;;
25932;SDS011;13731;51.166;4.474;2023-05-07T04:28:04;105.78;;;100.05;;
25932;SDS011;13731;51.166;4.474;2023-05-07T04:30:33;114.28;;;108.10;;
25932;SDS011;13731;51.166;4.474;2023-05-07T04:33:01;99.68;;;94.03;;
25932;SDS011;13731;51.166;4.474;2023-05-07T04:35:29;109.75;;;103.53;;
25932;SDS011;13731;51.166;4.474;2023-05-07T04:37:55;102.65;;;96.55;;
25932;SDS011;13731;51.166;4.474;2023-05-07T04:40:21;110.30;;;103.97;;
25932;SDS011;13731;51.166;4.474;2023-05-07T04:42:46;107.43;;;101.28;;
25932;SDS011;13731;51.166;4.474;2023-05-07T04:45:13;112.28;;;105.90;;
25932;SDS011;13731;51.166;4.474;2023-05-07T04:47:41;112.67;;;106.40;;
25932;SDS011;13731;51.166;4.474;2023-05-07T04:50:07;114.57;;;107.93;;
25932;SDS011;13731;51.166;4.474;2023-05-07T04:52:34;116.65;;;109.93;;
25932;SDS011;13731;51.166;4.474;2023-05-07T04:55:00;114.43;;;107.97;;
25932;SDS011;13731;51.166;4.474;2023-05-07T04:57:32;117.97;;;111.55;;
25932;SDS011;13731;51.166;4.474;2023-05-07T04:59:58;126.75;;;119.30;;
25932;SDS011;13731;51.166;4.474;2023-05-07T05:02:25;122.00;;;114.95;;
25932;SDS011;13731;51.166;4.474;2023-05-07T05:04:51;126.85;;;119.70;;
25932;SDS011;13731;51.166;4.474;2023-05-07T05:07:17;126.90;;;119.63;;
25932;SDS011;13731;51.166;4.474;2023-05-07T05:09:43;128.43;;;121.18;;
25932;SDS011;13731;51.166;4.474;2023-05-07T05:12:10;124.47;;;117.20;;
25932;SDS011;13731;51.166;4.474;2023-05-07T05:14:37;126.40;;;119.22;;
25932;SDS011;13731;51.166;4.474;2023-05-07T05:17:03;121.03;;;113.78;;
25932;SDS011;13731;51.166;4.474;2023-05-07T05:19:29;114.30;;;107.90;;
25932;SDS011;13731;51.166;4.474;2023-05-07T05:21:55;116.57;;;110.30;;
25932;SDS011;13731;51.166;4.474;2023-05-07T05:24:21;121.72;;;114.93;;
25932;SDS011;13731;51.166;4.474;2023-05-07T05:26:47;124.88;;;118.32;;
25932;SDS011;13731;51.166;4.474;2023-05-07T05:29:13;119.28;;;112.65;;
25932;SDS011;13731;51.166;4.474;2023-05-07T05:31:41;116.78;;;110.60;;
25932;SDS011;13731;51.166;4.474;2023-05-07T05:34:07;126.68;;;119.75;;
25932;SDS011;13731;51.166;4.474;2023-05-07T05:36:34;131.57;;;124.55;;
25932;SDS011;13731;51.166;4.474;2023-05-07T05:39:00;124.22;;;117.53;;
25932;SDS011;13731;51.166;4.474;2023-05-07T05:41:27;117.85;;;111.45;;
25932;SDS011;13731;51.166;4.474;2023-05-07T05:43:53;119.18;;;112.63;;
25932;SDS011;13731;51.166;4.474;2023-05-07T05:46:19;123.13;;;116.20;;
25932;SDS011;13731;51.166;4.474;2023-05-07T05:48:46;129.48;;;122.03;;
25932;SDS011;13731;51.166;4.474;2023-05-07T05:51:11;133.27;;;126.18;;
25932;SDS011;13731;51.166;4.474;2023-05-07T05:53:37;135.80;;;128.35;;
25932;SDS011;13731;51.166;4.474;2023-05-07T05:56:05;130.10;;;123.05;;
25932;SDS011;13731;51.166;4.474;2023-05-07T05:58:33;143.60;;;135.95;;
25932;SDS011;13731;51.166;4.474;2023-05-07T06:01:01;128.40;;;121.15;;
25932;SDS011;13731;51.166;4.474;2023-05-07T06:03:29;122.82;;;116.32;;
25932;SDS011;13731;51.166;4.474;2023-05-07T06:05:59;123.22;;;116.75;;
25932;SDS011;13731;51.166;4.474;2023-05-07T06:08:31;127.97;;;121.25;;
25932;SDS011;13731;51.166;4.474;2023-05-07T06:10:57;127.18;;;120.03;;
25932;SDS011;13731;51.166;4.474;2023-05-07T06:13:25;120.07;;;113.78;;
25932;SDS011;13731;51.166;4.474;2023-05-07T06:15:51;120.07;;;113.45;;
25932;SDS011;13731;51.166;4.474;2023-05-07T06:18:17;123.22;;;116.45;;
25932;SDS011;13731;51.166;4.474;2023-05-07T06:20:43;122.20;;;114.88;;
25932;SDS011;13731;51.166;4.474;2023-05-07T06:23:16;113.00;;;106.70;;
25932;SDS011;13731;51.166;4.474;2023-05-07T06:25:45;113.93;;;107.78;;
25932;SDS011;13731;51.166;4.474;2023-05-07T06:28:13;117.13;;;110.75;;
25932;SDS011;13731;51.166;4.474;2023-05-07T06:30:41;112.35;;;106.05;;
25932;SDS011;13731;51.166;4.474;2023-05-07T06:33:07;119.97;;;113.53;;
25932;SDS011;13731;51.166;4.474;2023-05-07T06:35:33;124.70;;;118.18;;
25932;SDS011;13731;51.166;4.474;2023-05-07T06:37:59;127.38;;;120.40;;
25932;SDS011;13731;51.166;4.474;2023-05-07T06:40:28;132.82;;;125.82;;
25932;SDS011;13731;51.166;4.474;2023-05-07T06:42:55;125.35;;;118.50;;
25932;SDS011;13731;51.166;4.474;2023-05-07T06:45:41;120.72;;;114.13;;
25932;SDS011;13731;51.166;4.474;2023-05-07T06:48:08;121.35;;;114.93;;
25932;SDS011;13731;51.166;4.474;2023-05-07T06:50:44;112.78;;;106.72;;
25932;SDS011;13731;51.166;4.474;2023-05-07T06:53:10;105.80;;;100.25;;
25932;SDS011;13731;51.166;4.474;2023-05-07T06:55:36;105.20;;;99.22;;
25932;SDS011;13731;51.166;4.474;2023-05-07T06:58:04;92.55;;;87.50;;
25932;SDS011;13731;51.166;4.474;2023-05-07T07:00:31;89.63;;;84.82;;
25932;SDS011;13731;51.166;4.474;2023-05-07T07:02:57;88.82;;;83.60;;
25932;SDS011;13731;51.166;4.474;2023-05-07T07:05:26;97.97;;;92.85;;
25932;SDS011;13731;51.166;4.474;2023-05-07T07:07:53;104.25;;;98.63;;
25932;SDS011;13731;51.166;4.474;2023-05-07T07:10:19;105.10;;;99.30;;
25932;SDS011;13731;51.166;4.474;2023-05-07T07:12:47;99.85;;;94.53;;
25932;SDS011;13731;51.166;4.474;2023-05-07T07:15:13;100.65;;;95.15;;
25932;SDS011;13731;51.166;4.474;2023-05-07T07:17:40;95.10;;;89.63;;
25932;SDS011;13731;51.166;4.474;2023-05-07T07:20:06;92.32;;;87.30;;
25932;SDS011;13731;51.166;4.474;2023-05-07T07:22:33;96.53;;;91.05;;
25932;SDS011;13731;51.166;4.474;2023-05-07T07:25:00;101.07;;;95.63;;
25932;SDS011;13731;51.166;4.474;2023-05-07T07:27:25;92.13;;;87.05;;
25932;SDS011;13731;51.166;4.474;2023-05-07T07:29:51;86.47;;;81.95;;
25932;SDS011;13731;51.166;4.474;2023-05-07T07:32:18;83.50;;;78.57;;
25932;SDS011;13731;51.166;4.474;2023-05-07T07:34:45;77.40;;;73.00;;
25932;SDS011;13731;51.166;4.474;2023-05-07T07:37:11;75.70;;;71.60;;
25932;SDS011;13731;51.166;4.474;2023-05-07T07:39:37;76.65;;;72.40;;
25932;SDS011;13731;51.166;4.474;2023-05-07T07:42:04;73.25;;;69.32;;
25932;SDS011;13731;51.166;4.474;2023-05-07T07:44:31;69.53;;;65.70;;
25932;SDS011;13731;51.166;4.474;2023-05-07T07:47:02;74.68;;;70.28;;
25932;SDS011;13731;51.166;4.474;2023-05-07T07:49:28;71.47;;;67.63;;
25932;SDS011;13731;51.166;4.474;2023-05-07T07:51:55;72.20;;;68.10;;
25932;SDS011;13731;51.166;4.474;2023-05-07T07:54:22;75.45;;;71.50;;
25932;SDS011;13731;51.166;4.474;2023-05-07T07:56:47;67.93;;;63.72;;
25932;SDS011;13731;51.166;4.474;2023-05-07T07:59:14;74.95;;;70.72;;
25932;SDS011;13731;51.166;4.474;2023-05-07T08:01:44;68.28;;;64.53;;
25932;SDS011;13731;51.166;4.474;2023-05-07T08:04:10;70.72;;;66.82;;
25932;SDS011;13731;51.166;4.474;2023-05-07T08:09:07;61.33;;;57.40;;
25932;SDS011;13731;51.166;4.474;2023-05-07T08:11:33;63.42;;;59.83;;
25932;SDS011;13731;51.166;4.474;2023-05-07T08:13:59;58.50;;;55.20;;
25932;SDS011;13731;51.166;4.474;2023-05-07T08:16:25;57.50;;;54.13;;
25932;SDS011;13731;51.166;4.474;2023-05-07T08:18:52;59.15;;;55.90;;
25932;SDS011;13731;51.166;4.474;2023-05-07T08:21:18;59.67;;;55.97;;
25932;SDS011;13731;51.166;4.474;2023-05-07T08:23:43;62.50;;;58.45;;
25932;SDS011;13731;51.166;4.474;2023-05-07T08:26:09;61.83;;;58.35;;
25932;SDS011;13731;51.166;4.474;2023-05-07T08:28:36;64.20;;;60.63;;
25932;SDS011;13731;51.166;4.474;2023-05-07T08:31:02;63.22;;;59.72;;
25932;SDS011;13731;51.166;4.474;2023-05-07T08:33:32;64.75;;;61.08;;
25932;SDS011;13731;51.166;4.474;2023-05-07T08:35:58;67.28;;;63.17;;
25932;SDS011;13731;51.166;4.474;2023-05-07T08:38:25;63.20;;;59.78;;
25932;SDS011;13731;51.166;4.474;2023-05-07T08:40:51;69.00;;;64.88;;
25932;SDS011;13731;51.166;4.474;2023-05-07T08:43:19;72.13;;;68.13;;
25932;SDS011;13731;51.166;4.474;2023-05-07T08:45:46;79.10;;;74.95;;
25932;SDS011;13731;51.166;4.474;2023-05-07T08:48:19;81.45;;;76.88;;
25932;SDS011;13731;51.166;4.474;2023-05-07T08:50:57;80.85;;;76.32;;
25932;SDS011;13731;51.166;4.474;2023-05-07T08:53:24;83.90;;;79.18;;
25932;SDS011;13731;51.166;4.474;2023-05-07T08:55:51;83.18;;;78.80;;
25932;SDS011;13731;51.166;4.474;2023-05-07T08:58:18;93.43;;;88.53;;
25932;SDS011;13731;51.166;4.474;2023-05-07T09:00:44;83.15;;;78.47;;
25932;SDS011;13731;51.166;4.474;2023-05-07T09:03:11;88.85;;;83.68;;
25932;SDS011;13731;51.166;4.474;2023-05-07T09:05:39;90.90;;;85.75;;
25932;SDS011;13731;51.166;4.474;2023-05-07T09:08:07;91.00;;;85.97;;
25932;SDS011;13731;51.166;4.474;2023-05-07T09:10:33;103.75;;;98.00;;
25932;SDS011;13731;51.166;4.474;2023-05-07T09:13:00;126.65;;;119.50;;
25932;SDS011;13731;51.166;4.474;2023-05-07T09:15:28;144.18;;;136.15;;
25932;SDS011;13731;51.166;4.474;2023-05-07T09:17:58;145.07;;;137.48;;
25932;SDS011;13731;51.166;4.474;2023-05-07T09:20:27;144.68;;;137.23;;
25932;SDS011;13731;51.166;4.474;2023-05-07T09:22:55;138.90;;;131.30;;
25932;SDS011;13731;51.166;4.474;2023-05-07T09:25:30;130.38;;;123.40;;
25932;SDS011;13731;51.166;4.474;2023-05-07T09:28:00;115.82;;;109.60;;
25932;SDS011;13731;51.166;4.474;2023-05-07T09:30:28;113.13;;;107.20;;
25932;SDS011;13731;51.166;4.474;2023-05-07T09:33:00;110.57;;;104.40;;
25932;SDS011;13731;51.166;4.474;2023-05-07T09:35:27;122.15;;;115.18;;
25932;SDS011;13731;51.166;4.474;2023-05-07T09:38:00;115.00;;;108.55;;
25932;SDS011;13731;51.166;4.474;2023-05-07T09:40:28;106.33;;;100.67;;
25932;SDS011;13731;51.166;4.474;2023-05-07T09:43:08;127.75;;;120.88;;
25932;SDS011;13731;51.166;4.474;2023-05-07T09:45:44;131.52;;;124.57;;
25932;SDS011;13731;51.166;4.474;2023-05-07T09:48:18;127.05;;;120.57;;
25932;SDS011;13731;51.166;4.474;2023-05-07T09:50:51;129.43;;;122.63;;
25932;SDS011;13731;51.166;4.474;2023-05-07T09:53:26;133.63;;;126.38;;
25932;SDS011;13731;51.166;4.474;2023-05-07T09:55:54;138.57;;;131.15;;
25932;SDS011;13731;51.166;4.474;2023-05-07T09:58:22;129.82;;;122.43;;
25932;SDS011;13731;51.166;4.474;2023-05-07T10:00:49;143.40;;;135.68;;
25932;SDS011;13731;51.166;4.474;2023-05-07T10:03:16;118.38;;;111.95;;
25932;SDS011;13731;51.166;4.474;2023-05-07T10:05:53;123.05;;;116.25;;
25932;SDS011;13731;51.166;4.474;2023-05-07T10:08:20;120.88;;;114.28;;
25932;SDS011;13731;51.166;4.474;2023-05-07T10:10:49;113.10;;;106.93;;
25932;SDS011;13731;51.166;4.474;2023-05-07T10:13:20;116.05;;;109.63;;
25932;SDS011;13731;51.166;4.474;2023-05-07T10:18:17;107.22;;;101.28;;
25932;SDS011;13731;51.166;4.474;2023-05-07T10:20:48;105.25;;;99.63;;
25932;SDS011;13731;51.166;4.474;2023-05-07T10:23:19;102.97;;;97.53;;
25932;SDS011;13731;51.166;4.474;2023-05-07T10:25:49;107.18;;;101.38;;
25932;SDS011;13731;51.166;4.474;2023-05-07T10:28:20;99.45;;;93.32;;
25932;SDS011;13731;51.166;4.474;2023-05-07T10:33:21;100.75;;;95.38;;
25932;SDS011;13731;51.166;4.474;2023-05-07T10:35:52;108.88;;;103.05;;
25932;SDS011;13731;51.166;4.474;2023-05-07T10:38:24;98.78;;;93.72;;
25932;SDS011;13731;51.166;4.474;2023-05-07T10:40:51;117.68;;;111.40;;
25932;SDS011;13731;51.166;4.474;2023-05-07T10:43:17;115.55;;;108.95;;
25932;SDS011;13731;51.166;4.474;2023-05-07T10:46:11;132.02;;;124.82;;
25932;SDS011;13731;51.166;4.474;2023-05-07T10:51:35;122.35;;;115.72;;
25932;SDS011;13731;51.166;4.474;2023-05-07T10:56:35;121.50;;;115.05;;
25932;SDS011;13731;51.166;4.474;2023-05-07T11:02:02;117.60;;;111.45;;
25932;SDS011;13731;51.166;4.474;2023-05-07T11:04:44;107.25;;;101.75;;
25932;SDS011;13731;51.166;4.474;2023-05-07T11:07:27;113.43;;;107.18;;
25932;SDS011;13731;51.166;4.474;2023-05-07T11:09:59;103.97;;;98.10;;
25932;SDS011;13731;51.166;4.474;2023-05-07T11:15:37;98.80;;;93.60;;
25932;SDS011;13731;51.166;4.474;2023-05-07T11:18:15;103.35;;;97.90;;
25932;SDS011;13731;51.166;4.474;2023-05-07T11:26:30;98.80;;;93.68;;
25932;SDS011;13731;51.166;4.474;2023-05-07T11:29:11;105.38;;;99.65;;
25932;SDS011;13731;51.166;4.474;2023-05-07T11:31:51;103.43;;;97.50;;
25932;SDS011;13731;51.166;4.474;2023-05-07T11:34:24;108.82;;;102.97;;
25932;SDS011;13731;51.166;4.474;2023-05-07T11:36:52;119.68;;;113.43;;
25932;SDS011;13731;51.166;4.474;2023-05-07T11:39:25;116.22;;;110.05;;
25932;SDS011;13731;51.166;4.474;2023-05-07T11:42:01;117.00;;;110.97;;
25932;SDS011;13731;51.166;4.474;2023-05-07T11:44:45;122.55;;;116.38;;
25932;SDS011;13731;51.166;4.474;2023-05-07T11:47:19;125.63;;;119.10;;
25932;SDS011;13731;51.166;4.474;2023-05-07T11:49:46;132.80;;;125.90;;
25932;SDS011;13731;51.166;4.474;2023-05-07T11:52:16;123.00;;;116.47;;
25932;SDS011;13731;51.166;4.474;2023-05-07T11:54:53;112.63;;;106.70;;
25932;SDS011;13731;51.166;4.474;2023-05-07T11:57:21;102.00;;;96.60;;
25932;SDS011;13731;51.166;4.474;2023-05-07T11:59:48;101.15;;;95.82;;
25932;SDS011;13731;51.166;4.474;2023-05-07T12:02:19;98.13;;;92.93;;
25932;SDS011;13731;51.166;4.474;2023-05-07T12:04:45;109.70;;;104.10;;
25932;SDS011;13731;51.166;4.474;2023-05-07T12:07:13;111.75;;;105.57;;
25932;SDS011;13731;51.166;4.474;2023-05-07T12:12:09;104.28;;;98.70;;
25932;SDS011;13731;51.166;4.474;2023-05-07T12:14:39;121.07;;;114.80;;
25932;SDS011;13731;51.166;4.474;2023-05-07T12:17:07;128.32;;;121.85;;
25932;SDS011;13731;51.166;4.474;2023-05-07T12:19:34;119.28;;;113.07;;
25932;SDS011;13731;51.166;4.474;2023-05-07T12:22:02;104.50;;;99.13;;
25932;SDS011;13731;51.166;4.474;2023-05-07T12:24:29;104.07;;;98.53;;
25932;SDS011;13731;51.166;4.474;2023-05-07T12:27:06;108.40;;;102.60;;
25932;SDS011;13731;51.166;4.474;2023-05-07T12:29:32;115.53;;;109.38;;
25932;SDS011;13731;51.166;4.474;2023-05-07T12:31:58;102.55;;;97.15;;
25932;SDS011;13731;51.166;4.474;2023-05-07T12:34:24;110.65;;;104.65;;
25932;SDS011;13731;51.166;4.474;2023-05-07T12:36:50;117.10;;;111.05;;
25932;SDS011;13731;51.166;4.474;2023-05-07T12:39:16;110.32;;;104.43;;
25932;SDS011;13731;51.166;4.474;2023-05-07T12:41:54;101.43;;;95.82;;
25932;SDS011;13731;51.166;4.474;2023-05-07T12:44:39;109.97;;;103.88;;
25932;SDS011;13731;51.166;4.474;2023-05-07T12:47:05;107.55;;;101.85;;
25932;SDS011;13731;51.166;4.474;2023-05-07T12:49:31;112.22;;;106.32;;
25932;SDS011;13731;51.166;4.474;2023-05-07T12:51:59;115.80;;;109.72;;
25932;SDS011;13731;51.166;4.474;2023-05-07T12:54:32;119.18;;;113.05;;
25932;SDS011;13731;51.166;4.474;2023-05-07T12:59:46;130.70;;;124.20;;
25932;SDS011;13731;51.166;4.474;2023-05-07T13:02:12;123.07;;;116.93;;
25932;SDS011;13731;51.166;4.474;2023-05-07T13:04:39;137.50;;;130.48;;
25932;SDS011;13731;51.166;4.474;2023-05-07T13:07:05;141.15;;;134.20;;
25932;SDS011;13731;51.166;4.474;2023-05-07T13:09:31;146.85;;;139.63;;
25932;SDS011;13731;51.166;4.474;2023-05-07T13:11:57;123.75;;;117.50;;
25932;SDS011;13731;51.166;4.474;2023-05-07T13:14:26;161.10;;;152.95;;
25932;SDS011;13731;51.166;4.474;2023-05-07T13:16:52;143.48;;;136.18;;
25932;SDS011;13731;51.166;4.474;2023-05-07T13:19:18;162.32;;;154.23;;
25932;SDS011;13731;51.166;4.474;2023-05-07T13:21:44;133.85;;;127.35;;
25932;SDS011;13731;51.166;4.474;2023-05-07T13:24:09;114.75;;;109.30;;
25932;SDS011;13731;51.166;4.474;2023-05-07T13:26:35;88.30;;;83.93;;
25932;SDS011;13731;51.166;4.474;2023-05-07T13:29:01;95.05;;;90.43;;
25932;SDS011;13731;51.166;4.474;2023-05-07T13:31:27;84.70;;;80.65;;
25932;SDS011;13731;51.166;4.474;2023-05-07T13:33:53;80.10;;;76.13;;
25932;SDS011;13731;51.166;4.474;2023-05-07T13:36:21;68.93;;;65.72;;
25932;SDS011;13731;51.166;4.474;2023-05-07T13:38:46;80.25;;;76.28;;
25932;SDS011;13731;51.166;4.474;2023-05-07T13:41:12;73.35;;;69.38;;
25932;SDS011;13731;51.166;4.474;2023-05-07T13:43:39;70.60;;;67.13;;
25932;SDS011;13731;51.166;4.474;2023-05-07T13:46:05;70.38;;;67.10;;
25932;SDS011;13731;51.166;4.474;2023-05-07T13:48:31;67.05;;;63.95;;
25932;SDS011;13731;51.166;4.474;2023-05-07T13:50:56;55.15;;;52.38;;
25932;SDS011;13731;51.166;4.474;2023-05-07T13:53:22;58.55;;;55.75;;
25932;SDS011;13731;51.166;4.474;2023-05-07T13:55:48;54.60;;;51.65;;
25932;SDS011;13731;51.166;4.474;2023-05-07T13:58:14;59.20;;;56.38;;
25932;SDS011;13731;51.166;4.474;2023-05-07T14:00:40;58.50;;;55.78;;
25932;SDS011;13731;51.166;4.474;2023-05-07T14:03:06;55.30;;;52.53;;
25932;SDS011;13731;51.166;4.474;2023-05-07T14:05:31;59.67;;;56.88;;
25932;SDS011;13731;51.166;4.474;2023-05-07T14:07:57;59.67;;;56.63;;
25932;SDS011;13731;51.166;4.474;2023-05-07T14:10:23;82.75;;;78.80;;
25932;SDS011;13731;51.166;4.474;2023-05-07T14:12:49;57.63;;;54.83;;
25932;SDS011;13731;51.166;4.474;2023-05-07T14:15:15;56.70;;;53.85;;
25932;SDS011;13731;51.166;4.474;2023-05-07T14:17:42;64.20;;;61.05;;
25932;SDS011;13731;51.166;4.474;2023-05-07T14:20:08;59.55;;;56.70;;
25932;SDS011;13731;51.166;4.474;2023-05-07T14:22:35;63.65;;;60.28;;
25932;SDS011;13731;51.166;4.474;2023-05-07T14:25:01;69.05;;;65.82;;
25932;SDS011;13731;51.166;4.474;2023-05-07T14:27:27;66.53;;;63.38;;
25932;SDS011;13731;51.166;4.474;2023-05-07T14:29:54;56.80;;;54.00;;
25932;SDS011;13731;51.166;4.474;2023-05-07T14:32:20;58.25;;;55.47;;
25932;SDS011;13731;51.166;4.474;2023-05-07T14:34:46;71.63;;;68.20;;
25932;SDS011;13731;51.166;4.474;2023-05-07T14:37:12;66.28;;;63.22;;
25932;SDS011;13731;51.166;4.474;2023-05-07T14:39:38;77.53;;;74.00;;